createdAt,value
2018-12-18T00:02:41.151Z,47.33
2018-12-18T00:06:44.784Z,46.30
2018-12-18T00:10:52.670Z,47.62
2018-12-18T00:14:56.294Z,48.53
2018-12-18T00:18:59.926Z,44.42
2018-12-18T00:23:03.615Z,44.10
2018-12-18T00:27:07.251Z,45.27
2018-12-18T00:31:10.901Z,50.12
2018-12-18T00:35:14.538Z,47.27
2018-12-18T00:39:18.177Z,50.43
2018-12-18T00:43:21.893Z,50.45
2018-12-18T00:47:25.550Z,49.00
2018-12-18T00:51:29.168Z,54.43
2018-12-18T00:55:32.810Z,52.53
2018-12-18T00:59:36.423Z,49.58
2018-12-18T01:03:40.254Z,51.23
2018-12-18T01:07:43.889Z,49.35
2018-12-18T01:11:48.278Z,52.40
2018-12-18T01:15:51.940Z,45.13
2018-12-18T01:19:55.605Z,45.15
2018-12-18T01:23:59.245Z,45.75
2018-12-18T01:28:02.903Z,44.27
2018-12-18T01:32:06.535Z,41.23
2018-12-18T01:36:10.173Z,43.38
2018-12-18T01:40:13.786Z,42.53
2018-12-18T01:44:17.410Z,44.55
2018-12-18T01:48:21.053Z,43.33
2018-12-18T01:52:24.686Z,46.70
2018-12-18T01:56:28.310Z,50.70
2018-12-18T02:00:32.110Z,46.83
2018-12-18T02:04:35.875Z,46.27
2018-12-18T02:08:39.520Z,48.02
2018-12-18T02:12:43.207Z,46.10
2018-12-18T02:16:46.882Z,43.80
2018-12-18T02:20:50.494Z,44.77
2018-12-18T02:24:54.132Z,42.75
2018-12-18T02:28:57.777Z,48.15
2018-12-18T02:33:01.476Z,45.07
2018-12-18T02:37:05.127Z,41.75
2018-12-18T02:41:08.742Z,46.28
2018-12-18T02:45:12.374Z,38.23
2018-12-18T02:49:15.999Z,41.75
2018-12-18T02:53:19.711Z,48.60
2018-12-18T02:57:23.357Z,43.30
2018-12-18T03:01:26.961Z,44.08
2018-12-18T03:05:30.625Z,46.25
2018-12-18T03:09:34.266Z,48.83
2018-12-18T03:13:37.981Z,46.20
2018-12-18T03:17:41.608Z,46.70
2018-12-18T03:21:45.252Z,44.27
2018-12-18T03:25:48.850Z,43.52
2018-12-18T03:29:52.510Z,46.30
2018-12-18T03:33:56.238Z,45.53
2018-12-18T03:37:59.886Z,46.73
2018-12-18T03:42:03.543Z,43.50
2018-12-18T03:46:07.162Z,49.00
2018-12-18T03:50:10.944Z,43.43
2018-12-18T03:54:14.571Z,45.23
2018-12-18T03:58:18.198Z,42.60
2018-12-18T04:02:21.817Z,45.90
2018-12-18T04:06:25.420Z,41.63
2018-12-18T04:10:29.083Z,40.73
2018-12-18T04:14:32.763Z,43.07
2018-12-18T04:18:36.886Z,40.55
2018-12-18T04:22:40.585Z,39.40
2018-12-18T04:26:44.192Z,41.50
2018-12-18T04:30:47.833Z,40.52
2018-12-18T04:34:51.487Z,44.17
2018-12-18T04:38:55.132Z,37.42
2018-12-18T04:42:58.770Z,37.03
2018-12-18T04:47:02.406Z,41.68
2018-12-18T04:51:06.043Z,38.20
2018-12-18T04:55:09.689Z,39.35
2018-12-18T04:59:13.335Z,33.70
2018-12-18T05:03:16.977Z,36.35
2018-12-18T05:07:20.579Z,39.58
2018-12-18T05:11:24.213Z,37.30
2018-12-18T05:15:27.894Z,33.48
2018-12-18T05:19:31.662Z,39.53
2018-12-18T05:23:35.371Z,36.00
2018-12-18T05:27:38.974Z,39.75
2018-12-18T05:31:42.637Z,38.08
2018-12-18T05:35:46.249Z,38.33
2018-12-18T05:39:49.873Z,37.83
2018-12-18T05:43:53.534Z,31.70
2018-12-18T05:47:57.137Z,37.43
2018-12-18T05:52:00.791Z,34.75
2018-12-18T05:56:04.441Z,32.42
2018-12-18T06:00:08.244Z,29.17
2018-12-18T06:04:11.858Z,32.83
2018-12-18T06:08:15.497Z,43.63
2018-12-18T06:12:19.133Z,30.75
2018-12-18T06:16:22.791Z,29.17
2018-12-18T06:20:26.441Z,25.30
2018-12-18T06:24:30.071Z,24.87
2018-12-18T06:28:33.741Z,26.93
2018-12-18T06:32:37.361Z,29.32
2018-12-18T06:36:41.048Z,28.42
2018-12-18T06:40:44.701Z,23.45
2018-12-18T06:44:48.774Z,26.90
2018-12-18T06:48:52.441Z,22.63
2018-12-18T06:52:56.062Z,21.70
2018-12-18T06:56:59.711Z,18.73
2018-12-18T07:01:03.385Z,22.27
2018-12-18T07:05:07.041Z,20.17
2018-12-18T07:09:10.694Z,23.80
2018-12-18T07:13:14.297Z,21.73
2018-12-18T07:17:18.006Z,19.45
2018-12-18T07:21:21.661Z,21.43
2018-12-18T07:25:25.319Z,22.22
2018-12-18T07:29:28.961Z,23.15
2018-12-18T07:33:32.633Z,19.87
2018-12-18T07:37:36.269Z,21.77
2018-12-18T07:41:39.922Z,19.00
2018-12-18T07:45:43.561Z,19.42
2018-12-18T07:49:47.227Z,18.62
2018-12-18T07:53:50.881Z,19.48
2018-12-18T07:57:54.662Z,18.98
2018-12-18T08:01:58.292Z,18.65
2018-12-18T08:06:01.958Z,17.05
2018-12-18T08:10:06.161Z,15.88
2018-12-18T08:14:10.086Z,23.62
2018-12-18T08:18:13.757Z,19.05
2018-12-18T08:22:17.569Z,15.63
2018-12-18T08:26:21.359Z,13.43
2018-12-18T08:30:25.034Z,14.18
2018-12-18T08:34:28.766Z,15.20
2018-12-18T08:38:32.389Z,13.95
2018-12-18T08:42:36.014Z,15.13
2018-12-18T08:46:39.822Z,16.10
2018-12-18T08:50:43.839Z,17.17
2018-12-18T08:54:47.497Z,18.20
2018-12-18T08:58:51.146Z,16.07
2018-12-18T09:02:54.898Z,16.42
2018-12-18T09:06:58.970Z,17.00
2018-12-18T09:11:02.694Z,21.17
2018-12-18T09:15:12.555Z,20.43
2018-12-18T09:19:16.172Z,18.82
2018-12-18T09:23:20.005Z,19.80
2018-12-18T09:27:23.666Z,21.23
2018-12-18T09:31:27.329Z,21.60
2018-12-18T09:35:30.965Z,16.93
2018-12-18T09:39:39.753Z,16.90
2018-12-18T09:43:48.545Z,17.82
2018-12-18T09:47:52.188Z,17.42
2018-12-18T09:51:55.882Z,14.05
2018-12-18T09:55:59.545Z,11.23
2018-12-18T10:00:03.363Z,13.48
2018-12-18T10:04:07.017Z,9.95
2018-12-18T10:08:10.730Z,13.15
2018-12-18T10:12:16.439Z,10.25
2018-12-18T10:16:20.133Z,15.97
2018-12-18T10:20:23.785Z,14.87
2018-12-18T10:24:27.394Z,13.58
2018-12-18T10:28:31.099Z,11.43
2018-12-18T10:32:34.734Z,10.85
2018-12-18T10:36:38.523Z,10.75
2018-12-18T10:40:42.178Z,11.57
2018-12-18T10:44:45.897Z,10.47
2018-12-18T10:48:49.548Z,10.98
2018-12-18T10:52:53.194Z,12.63
2018-12-18T10:56:56.919Z,12.88
2018-12-18T11:02:06.864Z,12.82
2018-12-18T11:06:10.497Z,10.82
2018-12-18T11:10:14.271Z,10.97
2018-12-18T11:14:18.112Z,11.33
2018-12-18T11:18:21.735Z,9.38
2018-12-18T11:22:25.390Z,12.07
2018-12-18T11:26:29.085Z,8.27
2018-12-18T11:30:32.689Z,7.75
2018-12-18T11:34:36.333Z,8.20
2018-12-18T11:38:40.011Z,8.98
2018-12-18T11:42:43.654Z,6.40
2018-12-18T11:46:47.314Z,7.90
2018-12-18T11:50:50.936Z,7.25
2018-12-18T11:54:54.594Z,7.83
2018-12-18T11:58:58.327Z,8.98
2018-12-18T12:03:01.999Z,7.15
2018-12-18T12:07:05.663Z,7.63
2018-12-18T12:11:09.254Z,9.08
2018-12-18T12:15:13.539Z,9.00
2018-12-18T12:19:17.193Z,11.85
2018-12-18T12:23:20.841Z,7.70
2018-12-18T12:27:29.896Z,8.10
2018-12-18T12:31:33.518Z,7.60
2018-12-18T12:35:37.174Z,6.35
2018-12-18T12:39:40.834Z,8.53
2018-12-18T12:43:44.486Z,6.92
2018-12-18T12:47:51.642Z,4.87
2018-12-18T12:51:55.297Z,5.00
2018-12-18T12:55:58.919Z,6.42
2018-12-18T13:00:02.589Z,6.37
2018-12-18T13:04:06.233Z,6.33
2018-12-18T13:08:09.875Z,9.23
2018-12-18T13:12:13.505Z,7.45
2018-12-18T13:16:17.158Z,6.97
2018-12-18T13:20:20.824Z,6.30
2018-12-18T13:24:24.460Z,6.00
2018-12-18T13:28:28.119Z,6.50
2018-12-18T13:32:31.791Z,5.97
2018-12-18T13:36:35.428Z,6.50
2018-12-18T13:40:39.089Z,7.75
2018-12-18T13:44:42.742Z,7.60
2018-12-18T13:48:46.421Z,5.75
2018-12-18T13:52:50.085Z,5.87
2018-12-18T13:56:53.702Z,7.42
2018-12-18T14:00:57.406Z,5.77
2018-12-18T14:05:01.069Z,6.65
2018-12-18T14:09:08.157Z,7.17
2018-12-18T14:13:11.825Z,5.87
2018-12-18T14:17:15.955Z,8.35
2018-12-18T14:21:21.231Z,7.70
2018-12-18T14:25:24.942Z,7.60
2018-12-18T14:29:28.626Z,7.25
2018-12-18T14:33:32.715Z,6.85
2018-12-18T14:37:36.749Z,10.08
2018-12-18T14:41:40.429Z,5.67
2018-12-18T14:45:44.104Z,6.47
2018-12-18T14:49:47.763Z,6.00
2018-12-18T14:53:51.402Z,10.33
2018-12-18T14:57:55.033Z,6.58
2018-12-18T15:01:58.707Z,6.80
2018-12-18T15:06:02.392Z,7.20
2018-12-18T15:10:07.841Z,12.20
2018-12-18T15:14:11.541Z,6.15
2018-12-18T15:18:15.198Z,6.70
2018-12-18T15:22:18.965Z,5.83
2018-12-18T15:26:22.766Z,6.50
2018-12-18T15:30:26.553Z,4.93
2018-12-18T15:34:30.356Z,7.25
2018-12-18T15:38:34.139Z,7.90
2018-12-18T15:42:37.819Z,6.70
2018-12-18T15:46:41.470Z,7.65
2018-12-18T15:50:45.182Z,6.75
2018-12-18T15:54:48.794Z,10.00
2018-12-18T15:58:52.433Z,7.83
2018-12-18T16:02:56.082Z,8.13
2018-12-18T16:06:59.708Z,10.50
2018-12-18T16:11:03.365Z,9.38
2018-12-18T16:15:07.746Z,10.78
2018-12-18T16:19:11.401Z,11.83
2018-12-18T16:23:15.040Z,8.58
2018-12-18T16:27:18.696Z,8.35
2018-12-18T16:31:23.258Z,9.80
2018-12-18T16:35:28.243Z,9.53
2018-12-18T16:39:32.070Z,9.90
2018-12-18T16:43:35.738Z,9.73
2018-12-18T16:47:41.041Z,12.47
2018-12-18T16:51:44.816Z,9.80
2018-12-18T16:55:48.414Z,10.63
2018-12-18T16:59:52.997Z,11.10
2018-12-18T17:03:56.648Z,9.75
2018-12-18T17:08:00.411Z,9.13
2018-12-18T17:12:04.101Z,7.70
2018-12-18T17:16:07.834Z,9.33
2018-12-18T17:20:11.480Z,8.63
2018-12-18T17:24:15.113Z,11.55
2018-12-18T17:28:19.332Z,11.03
2018-12-18T17:32:22.978Z,10.53
2018-12-18T17:36:26.581Z,9.85
2018-12-18T17:40:30.844Z,10.55
2018-12-18T17:44:34.503Z,9.28
2018-12-18T17:48:38.161Z,14.15
2018-12-18T17:52:41.817Z,12.90
2018-12-18T17:56:45.474Z,9.83
2018-12-18T18:00:49.098Z,9.85
2018-12-18T18:04:52.727Z,9.13
2018-12-18T18:08:57.131Z,9.90
2018-12-18T18:13:00.818Z,6.55
2018-12-18T18:17:04.543Z,9.25
2018-12-18T18:21:08.160Z,7.70
2018-12-18T18:25:11.826Z,7.65
2018-12-18T18:29:15.464Z,8.70
2018-12-18T18:33:19.477Z,9.60
2018-12-18T18:37:23.110Z,8.25
2018-12-18T18:41:26.743Z,10.13
2018-12-18T18:45:30.863Z,6.65
2018-12-18T18:49:34.905Z,5.75
2018-12-18T18:53:38.792Z,5.65
2018-12-18T18:57:42.417Z,5.33
2018-12-18T19:01:46.038Z,6.95
2018-12-18T19:05:49.675Z,6.97
2018-12-18T19:09:53.401Z,6.25
2018-12-18T19:13:57.062Z,8.68
2018-12-18T19:18:00.731Z,6.65
2018-12-18T19:22:04.351Z,4.05
2018-12-18T19:26:07.998Z,8.10
2018-12-18T19:30:11.650Z,6.20
2018-12-18T19:34:15.300Z,7.45
2018-12-18T19:38:18.931Z,6.50
2018-12-18T19:42:22.703Z,4.78
2018-12-18T19:46:26.332Z,7.53
2018-12-18T19:50:30.051Z,6.50
2018-12-18T19:54:33.687Z,5.72
2018-12-18T19:58:37.346Z,6.00
2018-12-18T20:02:41.101Z,7.10
2018-12-18T20:06:44.773Z,4.72
2018-12-18T20:10:48.429Z,7.87
2018-12-18T20:14:52.196Z,5.53
2018-12-18T20:18:55.854Z,5.67
2018-12-18T20:22:59.814Z,6.72
2018-12-18T20:27:03.546Z,7.92
2018-12-18T20:31:07.270Z,5.92
2018-12-18T20:37:40.157Z,6.80
2018-12-18T20:41:43.835Z,5.37
2018-12-18T20:45:47.502Z,6.87
2018-12-18T20:49:51.145Z,3.72
2018-12-18T20:53:54.771Z,7.15
2018-12-18T20:57:58.369Z,8.75
2018-12-18T21:02:02.029Z,4.65
2018-12-18T21:06:05.911Z,8.35
2018-12-18T21:13:34.222Z,7.17
2018-12-18T21:17:38.071Z,6.95
2018-12-18T21:26:34.776Z,7.37
2018-12-18T21:30:38.621Z,6.35
2018-12-18T21:34:42.456Z,7.33
2018-12-18T21:38:46.230Z,7.17
2018-12-18T21:42:50.041Z,5.60
2018-12-18T21:46:53.854Z,7.92
2018-12-18T21:50:57.667Z,5.50
2018-12-18T21:55:01.541Z,7.50
2018-12-18T21:59:05.492Z,7.30
2018-12-18T22:03:09.306Z,6.58
2018-12-18T22:07:13.157Z,6.47
2018-12-18T22:11:16.986Z,9.23
2018-12-18T22:15:20.864Z,4.70
2018-12-18T22:19:24.689Z,7.25
2018-12-18T22:23:34.862Z,6.12
2018-12-18T22:27:38.507Z,5.40
2018-12-18T22:31:42.139Z,5.97
2018-12-18T22:35:45.771Z,6.53
2018-12-18T22:39:49.422Z,6.20
2018-12-18T22:43:53.029Z,6.57
2018-12-18T22:47:56.672Z,6.08
2018-12-18T22:52:00.348Z,7.12
2018-12-18T22:56:04.035Z,6.08
2018-12-18T23:00:09.302Z,7.05
2018-12-18T23:04:14.161Z,5.13
2018-12-18T23:08:17.816Z,5.03
2018-12-18T23:12:21.477Z,6.17
2018-12-18T23:16:25.138Z,4.15
2018-12-18T23:20:28.752Z,5.30
2018-12-18T23:24:32.359Z,5.05
2018-12-18T23:28:36.001Z,6.90
2018-12-18T23:32:39.621Z,5.80
2018-12-18T23:36:43.246Z,6.42
2018-12-18T23:40:46.890Z,6.30
2018-12-18T23:46:24.450Z,6.75
2018-12-18T23:50:28.194Z,5.40
2018-12-18T23:54:31.817Z,8.08
2018-12-18T23:58:35.437Z,5.50
